• Join FlightAware (Why Join?)
  • Login
  • US Flag 
 
05:59PM EST


 

Airport Tracker/Info


-or-


 

Live Flight TrackerFlight Track Log ✈ TYR111 ✈ 24-Apr-2013 ✈ LOWW / VIE - EDDM / MUC

Flight Track Log - Related Links

Times and Time Zones

All times are in EDT time to prevent confusion due to time zone crossing. See the TYR111 flight status page for this flight to view local times or setup timezone preferences in your user account.

Time Position Orientation Groundspeed Altitude Reporting Facility
EDT Latitude Longitude Course Direction KTS MPH feet Rate Location/Type
01:10AM 48.2876 13.5453 276° West  Level Estimated
01:11AM 48.2947 13.3855 274° West  Level Estimated
01:12AM 48.3016 13.2258 274° West  Level Estimated
01:13AM 48.3083 13.0660 274° West  Level Estimated
01:14AM 48.3147 12.9061 274° West  Level Estimated
01:15AM 48.3210 12.7463 273° West  Level Estimated
01:16AM 48.3270 12.5863 273° West  Level Estimated
01:17AM 48.3328 12.4264 273° West  Level Estimated
01:18AM 48.3384 12.2664 273° West  Level Estimated
01:19AM 48.3437 12.1064 273° West  Level Estimated
01:20AM 48.3489 11.9463 273° West  Level Estimated
01:21AM 48.3538 11.7862 273° West  Level Estimated
01:22AM 48.3538 11.7861 272° West  Level Estimated
01:23AM 48.3538 11.7861 318° Northwest  Level Estimated
01:24AM 48.3538 11.7861 318° Northwest  Level Estimated
01:25AM 48.3538 11.7861 318° Northwest  Level Estimated
01:26AM 48.3538 11.7861 318° Northwest  Level Estimated
01:27AM 48.3538 11.7861 318° Northwest  Level Estimated
01:28AM 48.3538 11.7861 318° Northwest  Level Estimated
01:29AM 48.3538 11.7861 318° Northwest  Level Estimated
01:30AM 48.3538 11.7861 318° Northwest  Level Estimated
01:31AM 48.3538 11.7861 318° Northwest  Level Estimated
01:32AM 48.3538 11.7861 318° Northwest  Level Estimated
01:33AM 48.3538 11.7861 318° Northwest  Level Estimated
01:34AM 48.3538 11.7861 318° Northwest  Level Estimated